Minneapolis, Minnesota
Traffic Map
Current Weather Conditions
Minneapolis, Minnesota
Broken Clouds
Broken Clouds
76°
Feels Like: 76°
Wind Chill: 76° Ceiling: 30000
Heat Index: 76° Visibility: 10mi
Dew Point: 53° Wind: 3mph
Humidity: 45% Direction: ° ()
Pressure: 30.12in Gusts: 0mph
Raw Report DataKMSP 272253Z VRB03KT 10SM SCT050 BKN300 24/12 A3012 RMK AO2 SLP198 T02440117
Traffic Incident Summary
Active as of:
Severity:
Category:
InformationThere was an issue retrieving the traffic information for this location. Please try a different location or try again shortly.
Advertisements
Track Severe Weather on mobile